Lima, OH

6:01 PM EDT on September 04, 2015 (GMT -0400)
APRSWXNET | | Change Station
CLOSE
Current Station
Personal Weather Station
Location: Lima, OH
Elevation: 861 ft
Nearby Weather Stations

Elev 861 ft 40.73 °N, 84.12 °W | Updated 32 minutes ago

Overcast
Overcast
72 °F
Feels Like 72 °F
N
2
Wind Variable Wind from SE
Gusts 6.0 mph

Today
High -- | Low -- °F
--% Chance of Precip.
Yesterday
High -- | Low -- °F
Precip. -- in
7:05 AM 8:04 PM
Waning Gibbous, 55% visible
Pressure 30.04 in
Visibility 10.0 miles
Clouds Clear
Dew Point 69 °F
Humidity 90%
Rainfall in
Snow Depth Not available.
UV 2 out of 12
Pollen 9.60 out of 12
Air Quality Not available.
Flu Activity Not available.
METAR KAOH 042153Z AUTO 00000KT 10SM CLR 21/18 A3006 RMK AO2 LTG DSNT NE SLP172 T02110178 $
Pressure 30.04 in
Visibility 10.0 miles
Clouds Clear
Dew Point 69 °F
Humidity 90%
Rainfall in
Snow Depth Not available.
UV 2 out of 12
Pollen 9.60 out of 12
Air Quality Not available.
Flu Activity Not available.
METAR KAOH 042153Z AUTO 00000KT 10SM CLR 21/18 A3006 RMK AO2 LTG DSNT NE SLP172 T02110178 $

10-Day Weather Forecast

×

Almanac

Astronomy

Sep. 04, 2015 Rise Set
Actual Time
Civil Twilight
Nautical Twilight
Astronomical Twilight
Moon
Length of Visible Light
Length of Day
Tomorrow will be .
, % of the Moon is Illuminated

Today's Extremes

State Highs State Lows

Community

WunderPhotos

Upload Photos

1,852,305 photos uploaded!

WunderBlogs® & News

Nearby

Air Quality

  Air Quality AQ Index Pollutant
Not available.

Snow Depth

Station Depth Elevation

Earthquake Activity

City Distance Mag. Time & Date
Minimum magnitude displayed is 2.5.

Coastal Water Temperatures

Place Temperature

Stations

Nearby Weather Stations

Station Location Temp. Windchill Dew Point Humidity Wind Precip. Elev Updated Type